Time;durP1;ratioP1;P1;durP2;ratioP2;P2;SDS_P1;SDS_P2;PMS_P1;PMS_P2;Temp;Humidity;BMP_temperature;BMP_pressure;BME280_temperature;BME280_humidity;BME280_pressure;Samples;Min_cycle;Max_cycle;Signal;HPM_P1;HPM_P2
2023/03/02 00:02:17;;;;;;;;;;;6.50;59.50;;;6.94;43.38;98818.03;5052879;27;124369;-75
2023/03/02 00:04:56;;;;;;;;;;;6.40;59.90;;;6.83;43.48;98816.50;5045201;27;124049;-74
2023/03/02 00:07:31;;;;;;;;;;;6.40;60.20;;;6.71;44.08;98819.59;5044358;27;113668;-74
2023/03/02 00:10:15;;;;;;;;;;;6.20;60.30;;;6.62;43.32;98822.16;5048130;27;113427;-73
2023/03/02 00:12:41;;;;;;;;;;;6.10;60.30;;;6.57;44.24;98819.44;5047675;27;124548;-73
2023/03/02 00:15:09;;;;;;;;;;;6.10;60.60;;;6.51;44.10;98809.59;5059348;27;125566;-73
2023/03/02 00:17:36;;;;;;;;;;;6.00;60.90;;;6.46;43.94;98812.38;5053760;27;114458;-72
2023/03/02 00:20:08;;;;;;;;;;;6.00;61.10;;;6.41;43.98;98817.91;5048635;27;113990;-73
2023/03/02 00:22:42;;;;;;;;;;;5.90;61.20;;;6.34;44.72;98814.66;5050591;27;124827;-73
2023/03/02 00:25:11;;;;;;;;;;;5.80;61.60;;;6.32;44.70;98822.38;5049572;27;124353;-73
2023/03/02 00:27:38;;;;;;;;;;;5.80;61.80;;;6.27;44.65;98814.16;5052032;27;114307;-73
2023/03/02 00:30:06;;;;;;;;;;;5.80;61.80;;;6.25;44.87;98817.19;5034514;27;114462;-72
2023/03/02 00:32:33;;;;;;;;;;;5.70;61.70;;;6.28;44.91;98815.78;5048605;27;124030;-76
2023/03/02 00:34:59;;;;;;;;;;;5.80;61.80;;;6.30;45.10;98808.09;5038212;27;123785;-73
2023/03/02 00:37:25;;;;;;;;;;;5.80;61.80;;;6.32;44.92;98816.88;5045371;27;116609;-72
2023/03/02 00:39:52;;;;;;;;;;;5.80;62.00;;;6.27;44.83;98811.41;5047908;27;115647;-73
2023/03/02 00:42:19;;;;;;;;;;;5.70;62.00;;;6.26;44.79;98809.75;5043798;27;124248;-74
2023/03/02 00:44:45;;;;;;;;;;;5.70;62.10;;;6.28;45.31;98804.81;5050393;27;123876;-73
2023/03/02 00:47:12;;;;;;;;;;;5.80;62.10;;;6.29;45.48;98811.97;5052079;27;113928;-73
2023/03/02 00:49:39;;;;;;;;;;;5.80;62.10;;;6.30;44.77;98813.59;5050147;27;113905;-73
2023/03/02 00:52:05;;;;;;;;;;;5.80;62.30;;;6.29;45.12;98806.47;5066779;27;124315;-74
2023/03/02 00:54:31;;;;;;;;;;;5.80;62.30;;;6.29;44.85;98809.22;5054388;27;124237;-73
2023/03/02 00:56:58;;;;;;;;;;;5.80;62.40;;;6.29;45.19;98803.72;5050631;27;113330;-73
2023/03/02 00:59:27;;;;;;;;;;;5.80;62.40;;;6.26;45.46;98809.75;5051958;27;112598;-73
2023/03/02 01:01:57;;;;;;;;;;;5.80;62.60;;;6.20;45.60;98807.03;5040207;27;124139;-74
2023/03/02 01:04:30;;;;;;;;;;;5.70;62.70;;;6.17;44.91;98802.13;5052777;27;124216;-73
2023/03/02 01:06:57;;;;;;;;;;;5.70;62.80;;;6.16;45.47;98802.44;5033159;27;113467;-73
2023/03/02 01:09:24;;;;;;;;;;;5.70;62.70;;;6.16;45.84;98802.44;5048723;27;113901;-73
2023/03/02 01:11:51;;;;;;;;;;;5.70;63.00;;;6.15;45.47;98795.28;5041966;27;126949;-73
2023/03/02 01:14:18;;;;;;;;;;;5.70;63.00;;;6.14;45.20;98788.97;5031332;27;123558;-73
2023/03/02 01:16:46;;;;;;;;;;;6.40;63.70;;;6.16;45.17;98792.28;5048798;27;114470;-73
2023/03/02 01:19:13;;;;;;;;;;;5.70;63.10;;;6.13;45.45;98781.88;5043902;27;113724;-73
2023/03/02 01:21:40;;;;;;;;;;;5.60;63.10;;;6.12;45.18;98785.69;5046732;27;124532;-74
2023/03/02 01:24:08;;;;;;;;;;;5.60;63.10;;;6.13;45.27;98787.34;5053141;27;124496;-74
2023/03/02 01:26:34;;;;;;;;;;;5.70;63.20;;;6.10;45.47;98781.59;5061372;27;113606;-73
2023/03/02 01:29:01;;;;;;;;;;;5.60;63.50;;;6.07;45.74;98780.28;5049877;27;114572;-73
2023/03/02 01:31:27;;;;;;;;;;;5.60;63.40;;;6.04;45.43;98777.25;5050740;27;124024;-73
2023/03/02 01:33:54;;;;;;;;;;;5.50;64.50;;;5.95;45.65;98774.28;5047887;27;124113;-73
2023/03/02 01:36:22;;;;;;;;;;;5.40;63.90;;;5.85;46.06;98777.06;5046361;27;113425;-73
2023/03/02 01:38:49;;;;;;;;;;;5.30;64.00;;;5.78;46.28;98774.63;5049715;27;113999;-73
2023/03/02 01:41:16;;;;;;;;;;;5.30;64.30;;;5.72;46.61;98773.00;5041811;27;124096;-73
2023/03/02 01:43:42;;;;;;;;;;;5.20;64.50;;;5.70;46.14;98769.75;5048579;27;121978;-73
2023/03/02 01:46:15;;;;;;;;;;;5.20;64.60;;;5.71;46.25;98774.09;5048825;27;114713;-73
2023/03/02 01:48:47;;;;;;;;;;;5.20;64.80;;;5.64;45.95;98766.22;5042534;27;113906;-74
2023/03/02 01:51:16;;;;;;;;;;;5.10;64.80;;;5.57;47.05;98764.88;5047616;27;124505;-73
2023/03/02 01:53:45;;;;;;;;;;;5.10;65.20;;;5.51;46.81;98764.06;5047429;27;123579;-74
2023/03/02 01:56:22;;;;;;;;;;;5.00;65.10;;;5.48;47.06;98753.63;5046438;27;115211;-73
2023/03/02 01:58:52;;;;;;;;;;;5.00;65.20;;;5.47;47.59;98757.50;5054837;27;113911;-74
2023/03/02 02:01:18;;;;;;;;;;;5.00;65.30;;;5.47;46.86;98760.22;5052076;27;124163;-73
2023/03/02 02:03:48;;;;;;;;;;;5.00;65.70;;;5.42;47.31;98754.75;5049923;27;124356;-73
2023/03/02 02:06:25;;;;;;;;;;;4.90;65.80;;;5.39;47.33;98755.34;5043590;27;114131;-73
2023/03/02 02:08:53;;;;;;;;;;;4.90;65.90;;;5.37;47.46;98747.38;5049555;27;113666;-74
2023/03/02 02:11:19;;;;;;;;;;;4.90;65.90;;;5.41;47.71;98753.94;5047231;27;124774;-73
2023/03/02 02:13:45;;;;;;;;;;;4.90;66.50;;;5.41;47.75;98747.66;5047094;27;124624;-73
2023/03/02 02:16:12;;;;;;;;;;;4.90;66.00;;;5.40;47.95;98740.53;5040443;27;115032;-73
2023/03/02 02:18:39;;;;;;;;;;;4.90;65.90;;;5.38;46.88;98742.75;5049527;27;113674;-73
2023/03/02 02:21:07;;;;;;;;;;;4.90;66.00;;;5.38;47.64;98742.75;5048752;27;123353;-73
2023/03/02 02:23:55;;;;;;;;;;;4.90;66.10;;;5.42;47.41;98735.59;5046220;27;125474;-73
2023/03/02 02:26:28;;;;;;;;;;;4.90;66.10;;;5.46;47.30;98739.41;5050236;27;113848;-74
2023/03/02 02:29:11;;;;;;;;;;;4.90;66.00;;;5.48;46.97;98731.72;5054439;27;113944;-74
2023/03/02 02:31:47;;;;;;;;;;;5.00;66.10;;;5.50;47.60;98740.47;5035297;27;123251;-75
2023/03/02 02:34:23;;;;;;;;;;;5.00;66.00;;;5.56;47.23;98733.06;5038947;27;124641;-73
2023/03/02 02:36:53;;;;;;;;;;;5.10;66.10;;;5.59;47.31;98729.75;5046482;27;114054;-73
2023/03/02 02:39:23;;;;;;;;;;;5.10;66.10;;;5.60;46.58;98728.66;5051217;27;113367;-73
2023/03/02 02:41:53;;;;;;;;;;;5.10;66.00;;;5.62;46.91;98721.81;5045382;27;123941;-73
2023/03/02 02:44:19;;;;;;;;;;;5.10;66.00;;;5.63;46.75;98720.69;5060967;27;124244;-73
2023/03/02 02:46:46;;;;;;;;;;;5.10;66.00;;;5.61;47.07;98724.81;5043878;27;114462;-74
2023/03/02 02:49:36;;;;;;;;;;;5.10;66.00;;;5.60;46.92;98718.53;5049600;27;113977;-73
2023/03/02 02:52:04;;;;;;;;;;;5.10;66.10;;;5.58;46.93;98717.97;5045414;27;124191;-73
2023/03/02 02:54:31;;;;;;;;;;;5.10;66.10;;;5.60;46.94;98729.47;5044455;27;123662;-73
2023/03/02 02:57:00;;;;;;;;;;;5.10;66.20;;;5.61;46.83;98728.38;5031585;27;113549;-73
2023/03/02 02:59:29;;;;;;;;;;;5.10;66.20;;;5.62;47.02;98724.53;5051834;27;113051;-73
2023/03/02 03:01:55;;;;;;;;;;;5.20;66.20;;;5.64;46.58;98730.56;5047368;27;123849;-74
2023/03/02 03:04:25;;;;;;;;;;;5.20;66.20;;;5.65;46.63;98718.50;5045841;27;123774;-74
2023/03/02 03:07:02;;;;;;;;;;;5.10;66.20;;;5.63;47.32;98719.88;5046837;27;115302;-73
2023/03/02 03:09:29;;;;;;;;;;;5.10;66.20;;;5.62;47.41;98712.78;5055361;27;115072;-73
2023/03/02 03:12:02;;;;;;;;;;;5.10;66.30;;;5.61;47.21;98724.81;5046612;27;124406;-74
2023/03/02 03:14:38;;;;;;;;;;;5.10;66.30;;;5.61;46.97;98725.63;5047594;27;124147;-74
2023/03/02 03:17:11;;;;;;;;;;;5.10;66.30;;;5.61;47.32;98719.34;5036929;27;113298;-74
2023/03/02 03:19:39;;;;;;;;;;;5.20;66.50;;;5.61;47.00;98711.13;5052604;27;113986;-74
2023/03/02 03:22:06;;;;;;;;;;;5.10;66.30;;;5.61;47.34;98709.19;5047559;27;123079;-76
2023/03/02 03:24:33;;;;;;;;;;;5.10;66.30;;;5.62;47.53;98710.84;5034210;28;123991;-74
2023/03/02 03:27:04;;;;;;;;;;;5.20;66.40;;;5.61;47.30;98709.19;5062809;27;113734;-74
2023/03/02 03:29:31;;;;;;;;;;;5.10;66.50;;;5.54;47.72;98705.94;5047953;27;113939;-74
2023/03/02 03:32:00;;;;;;;;;;;5.10;66.80;;;5.44;47.68;98706.00;5048923;27;123480;-74
2023/03/02 03:34:27;;;;;;;;;;;4.90;66.60;;;5.41;47.68;98703.81;5049809;27;122954;-73
2023/03/02 03:36:54;;;;;;;;;;;4.90;66.80;;;5.40;47.16;98707.66;5039962;27;113250;-73
2023/03/02 03:39:21;;;;;;;;;;;4.90;66.90;;;5.40;47.24;98704.91;5036882;27;113615;-73
2023/03/02 03:41:47;;;;;;;;;;;4.90;66.90;;;5.39;47.62;98706.00;5040356;27;124690;-74
2023/03/02 03:44:14;;;;;;;;;;;4.90;66.90;;;5.39;46.98;98712.31;5032933;27;123281;-73
2023/03/02 03:46:40;;;;;;;;;;;4.90;66.90;;;5.41;47.84;98714.78;5048631;27;114362;-74
2023/03/02 03:49:06;;;;;;;;;;;4.90;66.90;;;5.43;47.08;98718.06;5040216;27;113836;-73
2023/03/02 03:51:34;;;;;;;;;;;4.90;66.90;;;5.42;47.68;98716.41;5046580;27;123965;-73
2023/03/02 03:54:01;;;;;;;;;;;5.00;67.00;;;5.42;48.07;98713.66;5039150;27;123944;-73
2023/03/02 03:56:32;;;;;;;;;;;5.00;67.10;;;5.43;47.42;98715.34;5049452;27;116472;-73
2023/03/02 03:59:05;;;;;;;;;;;5.00;67.10;;;5.43;47.34;98723.53;5050006;27;114863;-73
2023/03/02 04:01:51;;;;;;;;;;;5.00;67.20;;;5.45;47.14;98721.31;5036649;27;123176;-73
2023/03/02 04:04:21;;;;;;;;;;;4.90;67.10;;;5.41;48.09;98725.75;5034075;27;123899;-73
2023/03/02 04:06:47;;;;;;;;;;;4.90;67.30;;;5.36;47.43;98733.97;5067548;27;114440;-74
2023/03/02 04:09:16;;;;;;;;;;;4.90;67.40;;;5.35;47.75;98724.09;5047367;27;114497;-73
2023/03/02 04:11:44;;;;;;;;;;;4.90;67.40;;;5.35;47.28;98724.09;5047214;27;123194;-74
2023/03/02 04:14:12;;;;;;;;;;;4.90;67.50;;;5.34;48.08;98723.28;5065905;27;124344;-73
2023/03/02 04:16:40;;;;;;;;;;;4.90;67.70;;;5.27;47.73;98726.34;5043014;27;114440;-74
2023/03/02 04:19:09;;;;;;;;;;;4.80;67.80;;;5.22;48.28;98728.28;5049938;27;114354;-73
2023/03/02 04:21:41;;;;;;;;;;;4.70;67.70;;;5.17;49.03;98731.03;5059227;27;124097;-73
2023/03/02 04:24:08;;;;;;;;;;;4.70;68.20;;;5.11;48.41;98743.09;5051112;27;123748;-73
2023/03/02 04:26:36;;;;;;;;;;;4.60;68.20;;;5.09;48.43;98735.16;5050313;27;115052;-74
2023/03/02 04:29:03;;;;;;;;;;;4.60;68.20;;;5.05;48.68;98737.63;5048323;27;113542;-74
2023/03/02 04:31:30;;;;;;;;;;;4.60;68.30;;;5.04;48.58;98746.13;5053401;27;124250;-74
2023/03/02 04:33:57;;;;;;;;;;;4.50;68.40;;;5.05;48.26;98745.00;5044839;27;124038;-74
2023/03/02 04:36:23;;;;;;;;;;;4.50;68.40;;;5.07;48.77;98732.69;5048251;27;114742;-74
2023/03/02 04:38:50;;;;;;;;;;;4.60;68.40;;;5.12;48.43;98736.53;5051050;27;113335;-74
2023/03/02 04:41:18;;;;;;;;;;;4.60;68.40;;;5.09;48.12;98730.50;5044976;27;124258;-74
2023/03/02 04:43:44;;;;;;;;;;;4.60;68.60;;;5.01;48.53;98731.06;5051285;27;124025;-74
2023/03/02 04:46:14;;;;;;;;;;;4.50;68.70;;;5.00;48.41;98736.84;5045281;27;115437;-73
2023/03/02 04:48:41;;;;;;;;;;;4.50;68.70;;;4.98;48.91;98728.06;5048896;27;114611;-74
2023/03/02 04:51:14;;;;;;;;;;;4.50;68.80;;;4.94;48.98;98726.97;5050578;27;124180;-74
2023/03/02 04:53:41;;;;;;;;;;;4.40;69.00;;;4.90;48.40;98734.94;5052147;27;122686;-73
2023/03/02 04:56:08;;;;;;;;;;;4.40;69.00;;;4.86;49.33;98731.94;5047831;27;114170;-73
2023/03/02 04:58:34;;;;;;;;;;;4.30;69.10;;;4.85;49.01;98740.41;5018480;27;114306;-73
2023/03/02 05:01:01;;;;;;;;;;;4.30;69.40;;;4.81;48.86;98731.94;5046042;27;124158;-74
2023/03/02 05:03:27;;;;;;;;;;;6.00;70.80;;;4.80;49.26;98733.03;5052592;27;124074;-74
2023/03/02 05:05:53;;;;;;;;;;;4.30;69.30;;;4.81;49.63;98740.16;5047106;27;113764;-73
2023/03/02 05:08:19;;;;;;;;;;;4.30;69.50;;;4.79;48.95;98736.88;5049717;27;113649;-73
2023/03/02 05:10:46;;;;;;;;;;;4.70;70.00;;;4.75;48.93;98730.28;5043989;27;125296;-73
2023/03/02 05:13:12;;;;;;;;;;;4.20;69.70;;;4.74;49.55;98731.41;5052586;27;124096;-73
2023/03/02 05:15:39;;;;;;;;;;;4.20;69.60;;;4.76;48.97;98734.69;5051097;27;114529;-73
2023/03/02 05:18:07;;;;;;;;;;;4.20;69.80;;;4.74;49.38;98736.88;5043212;27;113611;-73
2023/03/02 05:20:34;;;;;;;;;;;4.20;70.00;;;4.73;48.97;98737.13;5040410;27;124000;-73
2023/03/02 05:23:03;;;;;;;;;;;4.20;70.00;;;4.73;49.36;98729.78;5048830;27;124038;-74
2023/03/02 05:25:33;;;;;;;;;;;4.20;70.10;;;4.72;49.05;98735.50;5051726;27;114521;-74
2023/03/02 05:28:00;;;;;;;;;;;4.20;70.20;;;4.70;50.22;98729.47;5050305;27;114095;-74
2023/03/02 05:30:27;;;;;;;;;;;4.10;70.70;;;4.65;50.22;98722.94;5049805;27;123183;-73
2023/03/02 05:32:53;;;;;;;;;;;4.10;70.80;;;4.67;50.07;98733.59;5050175;27;124127;-74
2023/03/02 05:35:20;;;;;;;;;;;4.10;70.80;;;4.70;50.02;98724.84;5048879;27;115743;-74
2023/03/02 05:37:47;;;;;;;;;;;4.20;70.80;;;4.75;49.60;98724.00;5052153;27;115274;-74
2023/03/02 05:40:16;;;;;;;;;;;4.20;70.80;;;4.74;49.92;98728.66;5056552;27;123447;-75
2023/03/02 05:42:43;;;;;;;;;;;4.20;71.10;;;4.68;50.16;98729.78;5048934;27;122010;-75
2023/03/02 05:45:18;;;;;;;;;;;4.10;71.20;;;4.69;50.21;98727.84;5047249;27;115053;-75
2023/03/02 05:47:45;;;;;;;;;;;4.10;71.20;;;4.66;49.97;98721.00;5050417;27;114533;-75
2023/03/02 05:50:11;;;;;;;;;;;4.10;71.10;;;4.70;50.20;98733.06;5040958;27;124913;-74
2023/03/02 05:52:37;;;;;;;;;;;4.10;71.30;;;4.70;50.12;98738.53;5036145;27;123084;-75
2023/03/02 05:55:04;;;;;;;;;;;4.10;71.20;;;4.72;50.12;98733.59;5045070;27;114412;-75
2023/03/02 05:57:30;;;;;;;;;;;4.20;71.10;;;4.74;50.31;98736.06;5053767;27;112513;-75
2023/03/02 05:59:56;;;;;;;;;;;4.20;71.20;;;4.73;50.47;98737.97;5044886;27;123959;-75
2023/03/02 06:02:23;;;;;;;;;;;4.20;71.50;;;4.72;49.90;98735.50;5048399;27;124499;-74
2023/03/02 06:04:49;;;;;;;;;;;4.20;71.70;;;4.69;50.56;98727.84;5030112;28;113979;-75
2023/03/02 06:07:16;;;;;;;;;;;4.10;71.50;;;4.65;50.91;98731.13;5065232;27;112701;-74
2023/03/02 06:09:42;;;;;;;;;;;4.50;72.20;;;4.63;50.72;98736.06;5044318;27;124658;-75
2023/03/02 06:12:08;;;;;;;;;;;4.10;71.90;;;4.61;50.33;98745.63;5048570;27;123279;-75
2023/03/02 06:14:35;;;;;;;;;;;4.10;72.00;;;4.61;50.92;98746.44;5046556;27;114101;-74
2023/03/02 06:17:01;;;;;;;;;;;4.20;72.10;;;4.63;50.79;98749.75;5036684;27;113672;-74
2023/03/02 06:19:27;;;;;;;;;;;4.10;72.10;;;4.64;50.04;98756.03;5037113;27;124153;-74
2023/03/02 06:21:54;;;;;;;;;;;4.10;72.20;;;4.65;50.54;98760.44;5036110;27;125093;-74
2023/03/02 06:24:20;;;;;;;;;;;4.10;72.70;;;4.72;52.45;98755.47;5034603;27;115470;-75
2023/03/02 06:26:46;;;;;;;;;;;4.10;74.90;;;4.80;52.15;98757.66;5036425;27;115443;-81
2023/03/02 06:29:12;;;;;;;;;;;4.20;74.90;;;4.90;51.91;98758.75;5042151;27;124100;-76
2023/03/02 06:31:39;;;;;;;;;;;4.30;74.70;;;4.95;51.94;98756.81;5049395;27;123509;-75
2023/03/02 06:34:05;;;;;;;;;;;4.30;74.60;;;5.06;51.87;98763.09;5047872;27;114196;-74
2023/03/02 06:36:32;;;;;;;;;;;4.40;74.80;;;5.17;51.73;98758.41;5047211;27;114348;-74
2023/03/02 06:38:58;;;;;;;;;;;4.50;74.90;;;5.24;51.73;98759.78;5040457;27;124617;-77
2023/03/02 06:41:24;;;;;;;;;;;4.60;74.70;;;5.30;51.26;98764.13;5038384;27;124589;-77
2023/03/02 06:43:51;;;;;;;;;;;4.70;74.40;;;5.36;51.38;98764.94;5033784;27;113985;-78
2023/03/02 06:46:18;;;;;;;;;;;4.70;74.00;;;5.41;50.20;98770.38;5032795;27;113665;-77
2023/03/02 06:48:44;;;;;;;;;;;4.80;73.80;;;5.44;51.21;98763.53;5038472;27;124794;-77
2023/03/02 06:51:11;;;;;;;;;;;4.90;73.60;;;5.48;49.77;98765.44;5053621;27;123965;-77
2023/03/02 06:53:37;;;;;;;;;;;4.90;73.30;;;5.50;49.80;98773.38;5042426;27;115012;-78
2023/03/02 06:56:04;;;;;;;;;;;4.90;73.00;;;5.52;50.21;98766.50;5036493;27;113971;-77
2023/03/02 06:58:32;;;;;;;;;;;4.90;72.80;;;5.55;49.84;98767.88;5051118;27;123886;-86
2023/03/02 07:00:58;;;;;;;;;;;5.00;72.70;;;5.56;49.91;98780.47;5046198;27;123834;-77
2023/03/02 07:03:28;;;;;;;;;;;5.00;72.60;;;5.55;49.51;98773.34;5048310;27;114563;-78
2023/03/02 07:05:54;;;;;;;;;;;5.00;72.40;;;5.50;49.96;98779.66;5050087;27;113496;-77
2023/03/02 07:08:21;;;;;;;;;;;5.00;72.30;;;5.48;50.20;98781.03;5050612;27;123585;-77
2023/03/02 07:10:47;;;;;;;;;;;4.90;72.20;;;5.47;49.13;98773.94;5048164;27;124046;-78
2023/03/02 07:13:13;;;;;;;;;;;4.80;72.20;;;5.47;49.64;98785.72;5048035;27;115637;-77
2023/03/02 07:15:39;;;;;;;;;;;4.90;72.30;;;5.47;49.36;98779.41;5041495;27;114604;-78
2023/03/02 07:18:06;;;;;;;;;;;4.90;72.40;;;5.43;49.76;98779.16;5049696;27;124121;-78
2023/03/02 07:20:33;;;;;;;;;;;4.80;72.30;;;5.37;49.59;98790.41;5048455;27;124631;-77
2023/03/02 07:22:59;;;;;;;;;;;4.80;72.30;;;5.36;49.65;98780.56;5050949;27;112236;-77
2023/03/02 07:25:26;;;;;;;;;;;4.80;72.30;;;5.37;50.20;98779.44;5049515;27;113227;-77
2023/03/02 07:27:52;;;;;;;;;;;4.80;72.40;;;5.40;49.22;98787.94;5046825;27;124105;-76
2023/03/02 07:30:20;;;;;;;;;;;4.90;72.50;;;5.44;49.45;98785.44;5047263;27;123453;-77
2023/03/02 07:32:46;;;;;;;;;;;4.90;72.40;;;5.49;49.88;98793.66;5046911;27;114725;-78
2023/03/02 07:35:13;;;;;;;;;;;4.90;72.30;;;5.53;49.71;98794.72;5053136;27;113683;-76
2023/03/02 07:37:39;;;;;;;;;;;5.00;72.30;;;5.57;49.71;98798.56;5052238;27;124001;-76
2023/03/02 07:40:06;;;;;;;;;;;5.00;72.20;;;5.59;49.60;98795.53;5040740;27;123835;-76
2023/03/02 07:42:33;;;;;;;;;;;5.00;72.30;;;5.57;49.33;98793.06;5049425;27;114481;-79
2023/03/02 07:44:59;;;;;;;;;;;5.00;72.20;;;5.57;49.42;98798.56;5052824;27;113709;-77
2023/03/02 07:47:26;;;;;;;;;;;5.00;72.30;;;5.51;49.41;98797.75;5050601;27;124566;-77
2023/03/02 07:49:52;;;;;;;;;;;5.00;72.30;;;5.48;49.70;98802.97;5058730;27;123502;-77
2023/03/02 07:52:18;;;;;;;;;;;4.90;72.20;;;5.48;48.97;98802.97;5051542;27;114361;-77
2023/03/02 07:54:44;;;;;;;;;;;4.90;72.40;;;5.51;49.79;98802.44;5051462;27;113680;-77
2023/03/02 07:57:14;;;;;;;;;;;4.90;72.40;;;5.57;49.47;98805.97;5042846;27;123861;-77
2023/03/02 07:59:42;;;;;;;;;;;5.00;72.50;;;5.58;49.54;98811.16;5048637;27;123348;-79
2023/03/02 08:02:14;;;;;;;;;;;5.00;72.50;;;5.61;49.68;98801.56;5045621;27;115569;-79
2023/03/02 08:04:40;;;;;;;;;;;5.00;72.50;;;5.63;49.82;98802.91;5047655;27;114651;-77
2023/03/02 08:07:07;;;;;;;;;;;5.10;72.50;;;5.67;49.70;98795.78;5051029;27;124482;-77
2023/03/02 08:09:33;;;;;;;;;;;5.10;72.50;;;5.73;49.77;98811.09;5050625;27;124157;-78
2023/03/02 08:12:00;;;;;;;;;;;5.20;72.50;;;5.71;49.36;98798.78;5050594;27;115031;-77
2023/03/02 08:14:26;;;;;;;;;;;5.20;72.40;;;5.67;49.14;98806.75;5051058;27;113605;-76
2023/03/02 08:16:52;;;;;;;;;;;5.10;72.40;;;5.63;49.58;98816.63;5049059;27;124473;-77
2023/03/02 08:19:19;;;;;;;;;;;5.10;72.40;;;5.58;49.63;98818.56;5053600;27;123045;-77
2023/03/02 08:21:45;;;;;;;;;;;5.00;72.90;;;5.52;50.16;98817.75;5051632;27;114589;-76
2023/03/02 08:24:11;;;;;;;;;;;4.90;72.90;;;5.50;50.10;98815.28;5052503;27;113069;-75
2023/03/02 08:26:40;;;;;;;;;;;4.90;73.10;;;5.46;49.48;98813.41;5051361;27;124740;-76
2023/03/02 08:29:06;;;;;;;;;;;4.90;73.10;;;5.47;50.11;98817.78;5051411;27;123869;-78
2023/03/02 08:31:32;;;;;;;;;;;4.80;73.10;;;5.53;49.74;98827.59;5048862;27;114534;-75
2023/03/02 08:33:58;;;;;;;;;;;4.90;73.20;;;5.60;49.92;98816.38;5051188;27;113686;-77
2023/03/02 08:36:25;;;;;;;;;;;5.00;73.20;;;5.62;49.51;98814.19;5051374;27;124642;-76
2023/03/02 08:38:52;;;;;;;;;;;5.00;73.20;;;5.57;49.57;98805.97;5045402;27;124299;-78
2023/03/02 08:41:21;;;;;;;;;;;5.40;73.70;;;5.57;50.11;98803.22;5051164;27;114514;-77
2023/03/02 08:43:52;;;;;;;;;;;5.00;73.40;;;5.59;50.23;98804.59;5052464;27;114011;-76
2023/03/02 08:46:19;;;;;;;;;;;5.00;73.60;;;5.58;49.69;98800.19;5051803;27;123958;-77
2023/03/02 08:48:48;;;;;;;;;;;4.90;73.60;;;5.59;50.28;98799.09;5041082;27;123758;-77
2023/03/02 08:51:20;;;;;;;;;;;5.00;74.00;;;5.65;50.04;98795.25;5043754;27;113429;-77
2023/03/02 08:53:49;;;;;;;;;;;5.00;74.10;;;5.70;50.36;98794.41;5048702;27;114897;-77
2023/03/02 08:56:31;;;;;;;;;;;7.20;75.90;;;5.81;50.15;98797.94;5049634;27;124552;-76
2023/03/02 08:59:02;;;;;;;;;;;5.10;73.90;;;5.90;49.89;98796.22;5052000;27;123973;-77
2023/03/02 09:01:30;;;;;;;;;;;5.20;73.90;;;5.99;49.53;98791.81;5042463;27;113604;-77
2023/03/02 09:03:59;;;;;;;;;;;5.30;73.80;;;6.06;49.62;98783.28;5043721;27;113718;-80
2023/03/02 09:06:30;;;;;;;;;;;5.40;73.80;;;6.15;49.73;98790.66;5048739;27;122590;-77
2023/03/02 09:08:58;;;;;;;;;;;5.50;73.80;;;6.24;49.73;98788.13;5046688;27;124519;-77
2023/03/02 09:11:24;;;;;;;;;;;5.50;73.70;;;6.33;49.12;98785.56;5052881;27;113829;-75
2023/03/02 09:13:50;;;;;;;;;;;5.60;73.70;;;6.40;48.86;98788.84;5053937;27;113652;-75
2023/03/02 09:16:20;;;;;;;;;;;5.70;73.50;;;6.43;49.45;98785.50;5050088;27;124928;-78
2023/03/02 09:18:46;;;;;;;;;;;5.70;73.40;;;6.44;49.14;98778.91;5048977;27;124002;-77
2023/03/02 09:21:13;;;;;;;;;;;5.80;73.40;;;6.49;49.32;98767.91;5050193;27;114768;-77
2023/03/02 09:23:39;;;;;;;;;;;5.80;73.20;;;6.58;49.21;98770.84;5048363;27;113971;-75
2023/03/02 09:26:06;;;;;;;;;;;6.80;74.00;;;6.67;48.75;98766.38;5053694;27;124309;-76
2023/03/02 09:28:32;;;;;;;;;;;6.00;73.20;;;6.76;49.03;98772.88;5050941;27;122857;-76
2023/03/02 09:31:01;;;;;;;;;;;6.10;73.10;;;6.86;49.02;98769.25;5044198;27;114779;-77
2023/03/02 09:33:28;;;;;;;;;;;6.70;73.50;;;6.93;48.42;98774.38;5032165;27;113782;-76
2023/03/02 09:35:55;;;;;;;;;;;6.30;73.00;;;7.00;48.86;98783.94;5056100;27;124014;-76
2023/03/02 09:38:22;;;;;;;;;;;6.40;72.80;;;7.01;48.41;98774.59;5038298;27;123614;-78
2023/03/02 09:41:02;;;;;;;;;;;6.40;72.60;;;7.01;48.60;98774.59;5043036;27;115517;-78
2023/03/02 09:43:31;;;;;;;;;;;6.40;72.50;;;7.03;48.51;98771.53;5042747;27;114521;-75
2023/03/02 09:46:20;;;;;;;;;;;6.40;72.50;;;7.11;48.41;98783.84;5064733;27;123242;-76
2023/03/02 09:49:14;;;;;;;;;;;6.50;72.50;;;7.17;48.33;98772.47;5043600;27;123037;-76
2023/03/02 09:51:47;;;;;;;;;;;6.50;72.40;;;7.23;47.99;98785.09;5040500;27;114506;-76
2023/03/02 09:54:18;;;;;;;;;;;6.60;72.50;;;7.32;48.37;98785.25;5037690;27;114943;-77
2023/03/02 09:56:47;;;;;;;;;;;6.70;72.50;;;7.39;47.92;98780.25;5056920;27;124132;-76
2023/03/02 09:59:22;;;;;;;;;;;6.80;72.50;;;7.49;47.99;98785.59;5063033;27;123673;-76
2023/03/02 10:02:24;;;;;;;;;;;6.80;72.40;;;7.60;47.59;98782.72;5042509;27;114860;-77
2023/03/02 10:04:53;;;;;;;;;;;6.90;72.40;;;7.67;47.50;98786.78;5053384;27;113524;-75
2023/03/02 10:07:27;;;;;;;;;;;7.00;72.40;;;7.77;47.57;98791.34;5047063;27;125105;-76
2023/03/02 10:10:02;;;;;;;;;;;7.10;72.30;;;7.76;47.51;98781.44;5049803;27;124298;-76
2023/03/02 10:12:50;;;;;;;;;;;7.10;72.10;;;7.80;47.51;98788.00;5046269;27;114094;-76
2023/03/02 10:15:38;;;;;;;;;;;7.20;72.10;;;7.90;47.43;98787.06;5044992;27;113937;-76
2023/03/02 10:18:21;;;;;;;;;;;7.20;72.10;;;8.00;47.29;98789.66;5050318;27;124063;-77
2023/03/02 10:20:59;;;;;;;;;;;7.30;72.10;;;8.07;47.03;98783.78;5045578;27;124571;-75
2023/03/02 10:23:38;;;;;;;;;;;7.40;71.90;;;8.13;46.90;98793.59;5042927;27;113996;-75
2023/03/02 10:26:14;;;;;;;;;;;7.40;71.80;;;8.18;47.00;98785.28;5033229;27;114436;-75
2023/03/02 10:28:44;;;;;;;;;;;7.50;71.80;;;8.21;46.96;98789.38;5034358;27;124189;-76
2023/03/02 10:31:24;;;;;;;;;;;7.50;71.70;;;8.26;46.66;98787.38;5047870;27;124006;-76
2023/03/02 10:34:02;;;;;;;;;;;7.60;71.70;;;8.32;46.69;98790.88;5045420;27;115057;-76
2023/03/02 10:36:30;;;;;;;;;;;7.70;71.70;;;8.42;46.83;98789.94;5048157;27;114661;-76
2023/03/02 10:38:59;;;;;;;;;;;7.80;71.70;;;8.47;46.55;98792.63;5047909;27;123910;-76
2023/03/02 10:41:48;;;;;;;;;;;7.80;71.40;;;8.56;46.53;98790.81;5052262;27;124208;-76
2023/03/02 10:44:22;;;;;;;;;;;7.90;71.30;;;8.59;45.78;98790.19;5045353;27;114834;-76
2023/03/02 10:46:50;;;;;;;;;;;7.90;70.80;;;8.62;46.10;98792.34;5048815;27;113897;-76
2023/03/02 10:49:32;;;;;;;;;;;7.90;71.00;;;8.73;46.13;98785.59;5052607;27;124825;-77
2023/03/02 10:52:19;;;;;;;;;;;8.00;71.10;;;8.83;46.12;98782.63;5043133;27;124172;-76
2023/03/02 10:55:24;;;;;;;;;;;8.10;71.00;;;8.94;46.11;98774.19;5039149;27;114643;-76
2023/03/02 10:58:19;;;;;;;;;;;8.20;71.10;;;9.04;46.00;98774.03;5047742;27;113876;-81
2023/03/02 11:01:04;;;;;;;;;;;8.30;70.80;;;9.18;45.54;98779.56;5015485;27;123662;-77
2023/03/02 11:03:31;;;;;;;;;;;8.40;70.70;;;9.27;45.44;98772.25;5033247;27;122114;-77
2023/03/02 11:06:11;;;;;;;;;;;8.60;70.60;;;9.38;45.17;98764.59;5041343;27;114509;-76
2023/03/02 11:08:37;;;;;;;;;;;8.70;70.40;;;9.48;45.31;98764.38;5041236;27;113424;-80
2023/03/02 11:11:03;;;;;;;;;;;7.90;69.40;;;9.60;45.32;98752.84;5046145;27;123862;-78
2023/03/02 11:13:38;;;;;;;;;;;8.90;70.20;;;9.75;44.68;98755.25;5045995;27;123558;-78
2023/03/02 11:16:22;;;;;;;;;;;9.00;70.10;;;9.90;44.74;98756.91;5040262;27;114392;-75
2023/03/02 11:19:24;;;;;;;;;;;9.10;70.00;;;10.05;44.27;98753.00;5053001;27;112904;-77
2023/03/02 11:22:12;;;;;;;;;;;9.30;69.90;;;10.15;43.92;98756.34;5025546;27;123473;-74
2023/03/02 11:24:44;;;;;;;;;;;9.40;69.30;;;10.27;44.11;98747.53;5042999;27;124703;-74
2023/03/02 11:27:28;;;;;;;;;;;9.50;69.30;;;10.45;43.50;98751.28;5039034;27;115533;-74
2023/03/02 11:30:01;;;;;;;;;;;9.60;69.20;;;10.55;43.57;98753.75;5054841;27;114514;-74
2023/03/02 11:32:39;;;;;;;;;;;9.80;68.80;;;10.63;43.13;98745.88;5051537;27;123478;-75
2023/03/02 11:35:11;;;;;;;;;;;9.90;68.40;;;10.67;42.72;98741.34;5038707;27;123892;-74
2023/03/02 11:37:55;;;;;;;;;;;10.00;66.70;;;10.76;43.02;98740.25;5042535;27;114638;-74